Etusivu
METAR-TAF:

METAR-TAF

Lentoasemat :

Savoonga, Alaska, Yhdysvallat

Leveyspiiri: 63-41N, Pituuspiiri: 170-30W, korkeus merenpinnasta: 16 m

Tämänhetkinen sää

Tämä raportti tehtiin 9 minuuttia sitten, kello 10.17 UTC
Tuuli 8 kn idästä
Lämpötila 6°C
Kosteus 93%
Ilmanpaine 1005 hPa
Näkyvyys: 16.1 km
Muutamia pilviä 900 ft:n korkeudessa
Hajanaisia pilviä 6000 ft:n korkeudessa
Pilvistä 10000 ft:n korkeudessa

METAR: PASA 121017Z AUTO 08008KT 10SM FEW009 SCT060 OVC100 06/05 A2967 RMK AO2

Aika: 02:26 (10:26 UTC)


TAF: puuttuu

Säähavainnot ja -ennusteet yli 4000 lentoasemalta (METAR- ja TAF-raportit).

Käytössä olevat sääasemat on merkitty karttaan keltaisilla ja punaisilla pisteillä.

Aseta hiiri pisteen päälle nähdäksesi sääaseman nimen.

Klikkaa sitten nähdäksesi säähavainnot ja -ennusteet.

Kartan vaihtaminen: klikkaa mustalla rastilla varustettuja vihreitä pisteitä, niin voit zoomata sisään; viivalla varustettua vihreää pistettä, niin voit zoomata ulos tai vihreitä nuolia, niin pääset viereisille kartoille.


METAR-TAF: